Time;durP1;ratioP1;P1;durP2;ratioP2;P2;SDS_P1;SDS_P2;PMS_P1;PMS_P2;Temp;Humidity;BMP_temperature;BMP_pressure;BME280_temperature;BME280_humidity;BME280_pressure;Samples;Min_cycle;Max_cycle;Signal;HPM_P1;HPM_P2
2022/05/26 00:00:55;;;;;;;22.90;5.88;;;;;;;;;;4968828;28;20505;-90
2022/05/26 00:03:21;;;;;;;30.25;6.10;;;;;;;;;;4969852;28;20062;-90
2022/05/26 00:05:47;;;;;;;21.90;6.97;;;;;;;;;;4971089;28;20034;-89
2022/05/26 00:08:13;;;;;;;36.95;7.60;;;;;;;;;;4982263;28;20040;-90
2022/05/26 00:10:40;;;;;;;23.98;6.72;;;;;;;;;;4964615;28;20051;-90
2022/05/26 00:13:06;;;;;;;28.08;6.70;;;;;;;;;;4970815;28;20038;-89
2022/05/26 00:15:32;;;;;;;29.88;7.25;;;;;;;;;;4968124;28;20081;-90
2022/05/26 00:17:59;;;;;;;35.65;8.32;;;;;;;;;;4969766;28;20076;-89
2022/05/26 00:20:25;;;;;;;28.70;7.88;;;;;;;;;;4967222;28;20110;-90
2022/05/26 00:22:51;;;;;;;32.85;7.03;;;;;;;;;;4966876;28;20126;-88
2022/05/26 00:25:17;;;;;;;29.95;7.80;;;;;;;;;;4977143;28;20110;-90
2022/05/26 00:27:43;;;;;;;21.42;5.47;;;;;;;;;;4968816;28;22831;-89
2022/05/26 00:30:09;;;;;;;33.25;7.35;;;;;;;;;;4971979;28;20046;-90
2022/05/26 00:32:35;;;;;;;27.02;5.47;;;;;;;;;;4969379;28;20490;-90
2022/05/26 00:35:01;;;;;;;32.70;7.47;;;;;;;;;;4983718;28;20529;-91
2022/05/26 00:37:27;;;;;;;36.13;7.40;;;;;;;;;;4961612;28;20510;-85
2022/05/26 00:39:53;;;;;;;24.67;7.18;;;;;;;;;;4969101;28;20117;-84
2022/05/26 00:42:19;;;;;;;24.90;6.28;;;;;;;;;;4967072;28;20045;-84
2022/05/26 00:44:45;;;;;;;25.05;8.23;;;;;;;;;;4966888;28;20027;-84
2022/05/26 00:47:19;;;;;;;34.22;8.32;;;;;;;;;;4969812;28;20038;-84
2022/05/26 00:49:45;;;;;;;34.88;9.38;;;;;;;;;;4969358;28;20034;-84
2022/05/26 00:52:16;;;;;;;32.42;7.20;;;;;;;;;;4960419;28;20026;-84
2022/05/26 00:54:44;;;;;;;33.60;7.25;;;;;;;;;;4981741;28;20037;-84
2022/05/26 00:57:14;;;;;;;26.88;7.10;;;;;;;;;;4964587;28;20073;-84
2022/05/26 00:59:55;;;;;;;31.30;8.00;;;;;;;;;;4962137;28;20055;-84
2022/05/26 01:02:23;;;;;;;23.98;7.05;;;;;;;;;;4981820;28;20023;-84
2022/05/26 01:04:50;;;;;;;35.33;7.47;;;;;;;;;;4966070;28;20493;-84
2022/05/26 01:07:19;;;;;;;32.72;7.93;;;;;;;;;;4967949;28;20081;-84
2022/05/26 01:09:46;;;;;;;30.63;8.68;;;;;;;;;;4967815;28;20105;-84
2022/05/26 01:12:12;;;;;;;35.10;7.07;;;;;;;;;;4968179;28;20133;-85
2022/05/26 01:14:40;;;;;;;36.17;7.25;;;;;;;;;;4960244;28;20026;-84
2022/05/26 01:17:27;;;;;;;33.40;7.55;;;;;;;;;;4977594;28;20042;-84
2022/05/26 01:20:08;;;;;;;41.83;7.28;;;;;;;;;;4961328;28;20026;-84
2022/05/26 01:22:37;;;;;;;43.08;7.65;;;;;;;;;;4963154;28;20477;-84
2022/05/26 01:25:14;;;;;;;48.17;8.02;;;;;;;;;;4963541;28;20038;-84
2022/05/26 01:27:45;;;;;;;44.78;7.70;;;;;;;;;;4967591;28;20022;-84
2022/05/26 01:30:21;;;;;;;31.55;6.65;;;;;;;;;;4964852;28;20034;-83
2022/05/26 01:32:47;;;;;;;;;;;;;;;;;;4980460;28;20110;-84
2022/05/26 01:35:23;;;;;;;21.27;6.45;;;;;;;;;;4980871;28;20011;-84
2022/05/26 01:38:02;;;;;;;22.73;5.25;;;;;;;;;;4962959;28;20505;-84
2022/05/26 01:40:31;;;;;;;25.58;6.10;;;;;;;;;;4968312;28;20494;-84
2022/05/26 01:43:00;;;;;;;35.70;5.93;;;;;;;;;;4965629;28;20084;-84
2022/05/26 01:45:26;;;;;;;32.78;5.55;;;;;;;;;;4965738;28;20031;-84
2022/05/26 01:48:13;;;;;;;38.22;6.55;;;;;;;;;;4964934;28;20105;-84
2022/05/26 01:50:44;;;;;;;23.40;6.03;;;;;;;;;;4964055;28;20048;-84
2022/05/26 01:53:23;;;;;;;39.78;7.05;;;;;;;;;;4966714;28;20037;-84
2022/05/26 01:55:49;;;;;;;36.15;6.47;;;;;;;;;;4965577;28;20122;-84
2022/05/26 01:58:15;;;;;;;30.83;6.25;;;;;;;;;;4967161;28;20489;-84
2022/05/26 02:00:41;;;;;;;34.30;5.50;;;;;;;;;;4977293;28;20040;-84
2022/05/26 02:03:17;;;;;;;21.55;4.90;;;;;;;;;;4966480;28;20124;-84
2022/05/26 02:05:47;;;;;;;29.90;5.50;;;;;;;;;;4961781;28;20536;-84
2022/05/26 02:08:23;;;;;;;35.05;6.28;;;;;;;;;;4964414;28;20495;-84
2022/05/26 02:11:07;;;;;;;32.33;5.50;;;;;;;;;;4983232;28;20299;-84
2022/05/26 02:13:42;;;;;;;37.80;8.23;;;;;;;;;;4968293;28;20027;-83
2022/05/26 02:16:17;;;;;;;31.77;6.38;;;;;;;;;;4978723;28;20497;-84
2022/05/26 02:18:59;;;;;;;36.80;6.75;;;;;;;;;;4963709;28;20034;-84
2022/05/26 02:21:30;;;;;;;31.55;6.05;;;;;;;;;;4958882;28;20030;-84
2022/05/26 02:24:10;;;;;;;34.15;5.90;;;;;;;;;;4973412;28;20031;-84
2022/05/26 02:26:37;;;;;;;34.25;5.78;;;;;;;;;;4969949;28;20058;-84
2022/05/26 02:31:49;;;;;;;35.72;6.47;;;;;;;;;;4980472;28;20048;-84
2022/05/26 02:34:17;;;;;;;29.60;6.82;;;;;;;;;;4979690;28;20097;-84
2022/05/26 02:36:44;;;;;;;30.83;5.25;;;;;;;;;;4978816;28;20034;-83
2022/05/26 02:39:10;;;;;;;28.63;6.03;;;;;;;;;;4983156;28;20037;-84
2022/05/26 02:41:38;;;;;;;36.72;5.95;;;;;;;;;;4968272;28;20046;-84
2022/05/26 02:44:04;;;;;;;37.25;5.82;;;;;;;;;;4966509;28;20038;-84
2022/05/26 02:46:53;;;;;;;41.00;6.47;;;;;;;;;;4968910;28;20383;-84
2022/05/26 02:49:36;;;;;;;33.30;6.70;;;;;;;;;;4957673;28;20082;-84
2022/05/26 02:52:03;;;;;;;29.23;5.80;;;;;;;;;;4964166;28;20551;-84
2022/05/26 02:54:36;;;;;;;33.78;6.18;;;;;;;;;;4970491;28;20105;-84
2022/05/26 02:57:21;;;;;;;37.35;6.70;;;;;;;;;;4971606;28;20030;-83
2022/05/26 02:59:55;;;;;;;37.03;4.97;;;;;;;;;;4985077;28;20397;-84
2022/05/26 03:02:24;;;;;;;31.65;5.10;;;;;;;;;;4962088;28;20034;-84
2022/05/26 03:04:55;;;;;;;30.20;7.03;;;;;;;;;;4968572;28;20023;-84
2022/05/26 03:07:24;;;;;;;34.30;6.05;;;;;;;;;;4985913;28;20030;-83
2022/05/26 03:09:57;;;;;;;37.47;6.13;;;;;;;;;;4977437;28;20058;-84
2022/05/26 03:12:28;;;;;;;37.65;6.22;;;;;;;;;;4950817;28;20035;-84
2022/05/26 03:14:55;;;;;;;29.25;6.05;;;;;;;;;;4962150;28;20034;-84
2022/05/26 03:17:21;;;;;;;43.58;6.20;;;;;;;;;;4950046;28;20037;-84
2022/05/26 03:19:47;;;;;;;32.58;5.88;;;;;;;;;;4945196;28;20164;-84
2022/05/26 03:22:13;;;;;;;24.40;5.03;;;;;;;;;;4951177;28;20033;-84
2022/05/26 03:24:39;;;;;;;37.88;7.47;;;;;;;;;;4964693;28;20623;-84
2022/05/26 03:27:05;;;;;;;25.45;4.90;;;;;;;;;;4944718;28;20030;-84
2022/05/26 03:29:31;;;;;;;24.95;5.63;;;;;;;;;;4962015;28;20030;-84
2022/05/26 03:31:58;;;;;;;29.40;5.43;;;;;;;;;;4960357;28;20037;-84
2022/05/26 03:42:40;;;;;;;24.60;5.53;;;;;;;;;;4964752;28;20041;-84
2022/05/26 03:45:06;;;;;;;29.67;4.78;;;;;;;;;;4942903;28;20027;-84
2022/05/26 03:47:33;;;;;;;27.30;5.50;;;;;;;;;;4950251;28;20027;-84
2022/05/26 03:49:59;;;;;;;27.65;5.28;;;;;;;;;;4949458;28;20031;-84
2022/05/26 03:52:31;;;;;;;36.47;5.93;;;;;;;;;;4952900;28;20165;-84
2022/05/26 03:54:57;;;;;;;28.60;4.72;;;;;;;;;;4962398;28;20043;-84
2022/05/26 03:57:28;;;;;;;19.42;4.68;;;;;;;;;;4944091;28;20042;-83
2022/05/26 03:59:54;;;;;;;27.30;5.00;;;;;;;;;;4961723;28;20054;-84
2022/05/26 04:02:21;;;;;;;20.55;4.07;;;;;;;;;;4943425;28;20541;-85
2022/05/26 04:04:47;;;;;;;15.57;4.30;;;;;;;;;;4946662;28;20161;-84
2022/05/26 04:07:13;;;;;;;19.00;4.20;;;;;;;;;;4943119;28;20552;-84
2022/05/26 04:09:52;;;;;;;21.92;3.47;;;;;;;;;;4949829;28;20585;-84
2022/05/26 04:12:18;;;;;;;23.58;3.75;;;;;;;;;;4968651;28;20437;-83
2022/05/26 04:14:44;;;;;;;12.25;2.55;;;;;;;;;;4963977;28;20513;-84
2022/05/26 04:17:10;;;;;;;15.15;2.45;;;;;;;;;;4963276;28;20031;-84
2022/05/26 04:19:41;;;;;;;12.40;3.35;;;;;;;;;;4974737;28;20038;-83
2022/05/26 04:22:18;;;;;;;14.82;2.13;;;;;;;;;;4968652;28;20054;-84
2022/05/26 04:24:45;;;;;;;11.10;2.50;;;;;;;;;;4968560;28;20026;-83
2022/05/26 04:27:11;;;;;;;16.70;2.50;;;;;;;;;;4960829;28;20367;-84
2022/05/26 04:29:38;;;;;;;10.73;2.47;;;;;;;;;;4964627;28;20279;-84
2022/05/26 04:32:04;;;;;;;9.10;2.30;;;;;;;;;;4965428;28;20034;-83
2022/05/26 04:34:31;;;;;;;17.33;2.80;;;;;;;;;;4964031;28;20528;-84
2022/05/26 04:36:57;;;;;;;9.30;2.55;;;;;;;;;;4966822;28;20034;-84
2022/05/26 04:39:23;;;;;;;13.05;2.58;;;;;;;;;;4966895;28;20035;-84
2022/05/26 04:41:49;;;;;;;9.57;2.45;;;;;;;;;;4960500;28;20458;-84
2022/05/26 04:44:16;;;;;;;12.45;2.05;;;;;;;;;;4982420;28;20538;-84
2022/05/26 04:46:42;;;;;;;11.48;2.03;;;;;;;;;;4967268;28;20034;-84
2022/05/26 04:49:09;;;;;;;8.95;1.90;;;;;;;;;;4967370;28;20294;-84
2022/05/26 04:51:36;;;;;;;13.73;2.08;;;;;;;;;;4967841;28;20038;-84
2022/05/26 04:54:03;;;;;;;12.27;2.47;;;;;;;;;;4961033;28;20517;-83
2022/05/26 04:56:29;;;;;;;14.82;2.25;;;;;;;;;;4965359;28;20034;-84
2022/05/26 04:58:55;;;;;;;7.82;2.05;;;;;;;;;;4963468;28;20040;-84
2022/05/26 05:01:21;;;;;;;5.60;1.85;;;;;;;;;;4965391;28;20022;-83
2022/05/26 05:03:48;;;;;;;15.98;2.22;;;;;;;;;;4974485;28;20401;-84
2022/05/26 05:06:14;;;;;;;5.55;1.65;;;;;;;;;;4981732;28;20018;-85
2022/05/26 05:08:41;;;;;;;19.08;1.92;;;;;;;;;;4966353;28;20057;-84
2022/05/26 05:11:08;;;;;;;6.88;1.65;;;;;;;;;;4981253;28;20306;-84
2022/05/26 05:13:34;;;;;;;12.20;2.22;;;;;;;;;;4968600;28;20061;-85
2022/05/26 05:16:06;;;;;;;10.95;1.50;;;;;;;;;;4961819;28;20042;-83
2022/05/26 05:18:32;;;;;;;9.35;1.98;;;;;;;;;;4967997;28;20069;-85
2022/05/26 05:21:01;;;;;;;10.82;2.10;;;;;;;;;;4981141;28;20085;-84
2022/05/26 05:23:28;;;;;;;5.22;1.77;;;;;;;;;;4962784;28;20465;-84
2022/05/26 05:25:55;;;;;;;7.85;2.08;;;;;;;;;;4959801;28;20537;-84
2022/05/26 05:28:32;;;;;;;10.00;1.60;;;;;;;;;;4966218;28;20694;-84
2022/05/26 05:31:00;;;;;;;7.18;1.45;;;;;;;;;;4967587;28;20514;-89
2022/05/26 05:33:34;;;;;;;9.35;2.33;;;;;;;;;;4966929;28;20034;-90
2022/05/26 05:36:13;;;;;;;3.90;1.40;;;;;;;;;;4986927;28;20034;-88
2022/05/26 05:38:39;;;;;;;7.65;1.63;;;;;;;;;;4987089;28;20684;-89
2022/05/26 05:41:06;;;;;;;13.07;2.08;;;;;;;;;;4974434;28;20022;-89
2022/05/26 05:43:32;;;;;;;11.50;1.55;;;;;;;;;;4974906;28;20085;-90
2022/05/26 05:45:58;;;;;;;8.60;1.52;;;;;;;;;;4975102;28;20110;-89
2022/05/26 05:48:25;;;;;;;11.85;2.00;;;;;;;;;;4976190;28;20501;-89
2022/05/26 05:50:51;;;;;;;7.82;1.52;;;;;;;;;;4975089;28;20022;-87
2022/05/26 05:53:17;;;;;;;9.07;1.98;;;;;;;;;;4991760;28;20026;-89
2022/05/26 05:55:43;;;;;;;6.40;1.45;;;;;;;;;;4992871;28;20034;-88
2022/05/26 05:58:10;;;;;;;7.90;1.65;;;;;;;;;;4977531;28;20022;-87
2022/05/26 06:00:37;;;;;;;5.53;1.40;;;;;;;;;;4971957;28;20038;-89
2022/05/26 06:03:03;;;;;;;6.88;1.95;;;;;;;;;;4978401;28;20039;-87
2022/05/26 06:05:30;;;;;;;5.50;1.55;;;;;;;;;;4992049;28;20105;-89
2022/05/26 06:07:56;;;;;;;5.60;1.80;;;;;;;;;;4992742;28;20038;-90
2022/05/26 06:10:22;;;;;;;12.18;1.60;;;;;;;;;;4990077;28;20027;-88
2022/05/26 06:12:48;;;;;;;9.23;1.45;;;;;;;;;;4990227;28;20030;-88
2022/05/26 06:15:14;;;;;;;4.82;1.33;;;;;;;;;;4983015;28;20450;-90
2022/05/26 06:17:40;;;;;;;8.85;1.98;;;;;;;;;;4972175;28;20096;-89
2022/05/26 06:20:07;;;;;;;13.05;1.83;;;;;;;;;;4980932;28;20145;-89
2022/05/26 06:22:37;;;;;;;13.27;1.83;;;;;;;;;;4989079;28;20385;-90
2022/05/26 06:25:04;;;;;;;17.05;2.33;;;;;;;;;;4973113;28;20023;-88
2022/05/26 06:30:19;;;;;;;9.88;1.77;;;;;;;;;;4987601;28;20076;-89
2022/05/26 06:38:18;;;;;;;15.77;1.85;;;;;;;;;;4986689;28;20049;-89
2022/05/26 06:40:44;;;;;;;5.18;1.35;;;;;;;;;;4982634;28;20042;-90
2022/05/26 06:43:10;;;;;;;7.43;1.33;;;;;;;;;;4970001;28;20030;-88
2022/05/26 06:45:38;;;;;;;8.35;1.40;;;;;;;;;;4969311;28;20038;-89
2022/05/26 06:48:04;;;;;;;3.40;1.15;;;;;;;;;;4967451;28;20041;-84
2022/05/26 06:50:30;;;;;;;10.25;1.27;;;;;;;;;;4970067;28;20041;-84
2022/05/26 06:52:56;;;;;;;9.70;2.33;;;;;;;;;;4966863;28;20027;-84
2022/05/26 06:55:22;;;;;;;4.70;1.15;;;;;;;;;;4981783;28;20149;-84
2022/05/26 06:57:48;;;;;;;6.00;1.30;;;;;;;;;;4977009;28;20034;-84
2022/05/26 07:00:15;;;;;;;6.00;1.20;;;;;;;;;;4966528;28;20038;-88
2022/05/26 07:02:41;;;;;;;4.43;1.17;;;;;;;;;;4965541;28;20030;-88
2022/05/26 07:05:08;;;;;;;13.65;2.83;;;;;;;;;;4966385;28;20026;-89
2022/05/26 07:07:35;;;;;;;7.35;1.67;;;;;;;;;;4987461;28;20072;-88
2022/05/26 07:10:02;;;;;;;4.43;1.30;;;;;;;;;;4964623;28;20165;-89
2022/05/26 07:12:28;;;;;;;8.05;1.45;;;;;;;;;;4963253;28;20050;-88
2022/05/26 07:14:54;;;;;;;8.45;1.42;;;;;;;;;;4967658;28;20062;-88
2022/05/26 07:17:20;;;;;;;5.82;1.40;;;;;;;;;;4985917;28;20046;-87
2022/05/26 07:19:47;;;;;;;5.03;1.45;;;;;;;;;;4967109;28;20131;-89
2022/05/26 07:22:16;;;;;;;5.88;1.48;;;;;;;;;;4968598;28;20030;-89
2022/05/26 07:24:42;;;;;;;8.68;1.45;;;;;;;;;;4962938;28;20069;-88
2022/05/26 07:27:09;;;;;;;5.70;1.40;;;;;;;;;;4982805;28;20044;-88
2022/05/26 07:29:35;;;;;;;5.70;1.38;;;;;;;;;;4967272;28;20038;-87
2022/05/26 07:32:01;;;;;;;10.60;1.90;;;;;;;;;;4963337;28;20406;-89
2022/05/26 07:34:28;;;;;;;3.13;1.98;;;;;;;;;;4965888;28;20038;-90
2022/05/26 07:42:38;;;;;;;5.65;1.33;;;;;;;;;;4942275;28;20037;-89
2022/05/26 07:45:07;;;;;;;7.97;1.65;;;;;;;;;;4965416;28;20486;-85
2022/05/26 07:47:33;;;;;;;8.10;1.52;;;;;;;;;;4966455;28;20389;-85
2022/05/26 07:49:59;;;;;;;5.63;1.30;;;;;;;;;;4963951;28;20498;-85
2022/05/26 07:52:25;;;;;;;4.57;1.42;;;;;;;;;;4965732;28;20066;-85
2022/05/26 07:54:51;;;;;;;4.25;1.52;;;;;;;;;;4977062;28;20019;-84
2022/05/26 07:57:18;;;;;;;3.75;1.20;;;;;;;;;;4964763;28;20038;-84
2022/05/26 07:59:44;;;;;;;6.78;1.45;;;;;;;;;;4966395;28;20141;-85
2022/05/26 08:02:10;;;;;;;6.22;1.58;;;;;;;;;;4965568;28;20684;-84
2022/05/26 08:04:36;;;;;;;5.93;1.35;;;;;;;;;;4960646;28;20548;-85
2022/05/26 08:07:02;;;;;;;8.05;1.60;;;;;;;;;;4980504;28;20689;-84
2022/05/26 08:09:28;;;;;;;10.38;2.30;;;;;;;;;;4976803;28;20031;-85
2022/05/26 08:11:54;;;;;;;3.75;1.10;;;;;;;;;;4962173;28;20058;-85
2022/05/26 08:14:20;;;;;;;4.45;1.35;;;;;;;;;;4958755;28;20039;-84
2022/05/26 08:16:47;;;;;;;9.35;1.52;;;;;;;;;;4979163;28;20030;-85
2022/05/26 08:19:13;;;;;;;3.42;1.30;;;;;;;;;;4962327;28;20045;-85
2022/05/26 08:21:39;;;;;;;8.45;2.38;;;;;;;;;;4959757;28;20054;-86
2022/05/26 08:24:05;;;;;;;5.20;1.20;;;;;;;;;;4966433;28;20034;-85
2022/05/26 08:26:31;;;;;;;5.28;1.10;;;;;;;;;;4965591;28;20033;-85
2022/05/26 08:28:58;;;;;;;4.50;1.00;;;;;;;;;;4967067;28;20073;-87
2022/05/26 08:31:24;;;;;;;14.93;1.60;;;;;;;;;;4967050;28;20033;-86
2022/05/26 08:33:51;;;;;;;6.38;1.52;;;;;;;;;;4977001;28;20088;-84
2022/05/26 08:36:20;;;;;;;9.18;1.40;;;;;;;;;;4966542;28;20038;-85
2022/05/26 08:38:46;;;;;;;7.88;1.48;;;;;;;;;;4971337;28;20497;-84
2022/05/26 08:41:21;;;;;;;10.02;2.55;;;;;;;;;;4964687;28;20037;-86
2022/05/26 08:43:51;;;;;;;4.13;1.30;;;;;;;;;;4961164;28;20081;-84
2022/05/26 08:46:19;;;;;;;4.03;1.40;;;;;;;;;;4965424;28;20161;-84
2022/05/26 08:49:12;;;;;;;2.53;1.40;;;;;;;;;;4960913;28;20068;-85
2022/05/26 08:51:47;;;;;;;6.85;1.15;;;;;;;;;;4961572;28;20125;-85
2022/05/26 08:54:24;;;;;;;6.68;1.90;;;;;;;;;;4976305;28;20043;-85
2022/05/26 08:56:51;;;;;;;7.65;1.23;;;;;;;;;;4982010;28;20109;-85
2022/05/26 08:59:18;;;;;;;5.05;1.25;;;;;;;;;;4978838;28;21785;-86
2022/05/26 09:01:44;;;;;;;4.15;1.50;;;;;;;;;;4964119;28;20497;-86
2022/05/26 09:04:11;;;;;;;5.60;1.15;;;;;;;;;;4963036;28;20859;-85
2022/05/26 09:12:55;;;;;;;7.63;1.50;;;;;;;;;;4962725;28;20030;-85
2022/05/26 09:15:03;;;;;;;4.70;1.48;;;;;;;;;;4983007;28;20076;-85
2022/05/26 09:17:30;;;;;;;3.80;1.20;;;;;;;;;;4966330;28;20039;-85
2022/05/26 09:19:57;;;;;;;4.40;1.20;;;;;;;;;;4967572;28;20030;-85
2022/05/26 09:22:40;;;;;;;4.25;1.27;;;;;;;;;;4972867;28;20084;-86
2022/05/26 09:25:09;;;;;;;2.95;1.35;;;;;;;;;;4981378;28;20038;-84
2022/05/26 09:27:37;;;;;;;4.97;1.25;;;;;;;;;;4962125;28;20042;-85
2022/05/26 09:30:22;;;;;;;10.27;1.88;;;;;;;;;;4965344;28;20450;-86
2022/05/26 09:32:48;;;;;;;7.57;1.20;;;;;;;;;;4957589;28;20034;-86
2022/05/26 09:35:17;;;;;;;5.00;1.02;;;;;;;;;;4968330;28;20458;-87
2022/05/26 09:37:45;;;;;;;7.43;1.35;;;;;;;;;;4981883;28;20038;-84
2022/05/26 09:40:25;;;;;;;8.05;1.13;;;;;;;;;;4976245;28;20393;-86
2022/05/26 09:43:02;;;;;;;10.02;1.30;;;;;;;;;;4958071;28;20030;-87
2022/05/26 09:45:36;;;;;;;1.83;0.98;;;;;;;;;;4974069;28;20380;-85
2022/05/26 09:48:02;;;;;;;4.90;1.35;;;;;;;;;;4962913;28;20034;-84
2022/05/26 09:50:37;;;;;;;6.50;1.60;;;;;;;;;;4966310;28;20026;-84
2022/05/26 09:53:05;;;;;;;5.82;1.38;;;;;;;;;;4966653;28;20042;-85
2022/05/26 09:55:54;;;;;;;7.00;1.42;;;;;;;;;;4965691;28;20147;-86
2022/05/26 09:58:28;;;;;;;5.28;1.35;;;;;;;;;;4964694;28;20034;-85
2022/05/26 10:00:56;;;;;;;4.65;1.20;;;;;;;;;;4976488;28;20034;-85
2022/05/26 10:03:41;;;;;;;4.57;1.13;;;;;;;;;;4964591;28;20086;-87
2022/05/26 10:06:26;;;;;;;4.47;0.90;;;;;;;;;;4966428;28;20064;-85
2022/05/26 10:08:58;;;;;;;4.00;1.45;;;;;;;;;;4966948;28;20165;-86
2022/05/26 10:11:55;;;;;;;2.85;0.80;;;;;;;;;;4967686;28;20541;-85
2022/05/26 10:14:34;;;;;;;6.30;1.23;;;;;;;;;;4980193;28;20043;-85
2022/05/26 10:16:59;;;;;;;1.38;0.80;;;;;;;;;;4962472;28;20038;-85
2022/05/26 10:19:26;;;;;;;1.95;1.05;;;;;;;;;;4964574;28;20019;-85
2022/05/26 10:21:59;;;;;;;7.28;2.38;;;;;;;;;;4962249;28;20063;-85
2022/05/26 10:24:28;;;;;;;6.60;2.10;;;;;;;;;;4979454;28;20026;-84
2022/05/26 10:27:13;;;;;;;5.63;0.88;;;;;;;;;;4964219;28;20251;-84
2022/05/26 10:29:45;;;;;;;5.95;1.20;;;;;;;;;;4962787;28;20049;-84
2022/05/26 10:32:11;;;;;;;1.88;0.98;;;;;;;;;;4974131;28;20516;-85
2022/05/26 10:34:37;;;;;;;5.40;0.73;;;;;;;;;;4965708;28;20034;-86
2022/05/26 10:37:03;;;;;;;5.13;1.60;;;;;;;;;;4966414;28;20030;-85
2022/05/26 10:39:47;;;;;;;5.63;1.20;;;;;;;;;;4963172;28;20379;-85
2022/05/26 10:42:19;;;;;;;1.35;0.80;;;;;;;;;;4974290;28;20054;-85
2022/05/26 10:45:04;;;;;;;5.55;1.27;;;;;;;;;;4983609;28;20027;-86
2022/05/26 10:47:35;;;;;;;4.90;1.17;;;;;;;;;;4979689;28;20114;-90
2022/05/26 10:50:10;;;;;;;2.17;1.00;;;;;;;;;;4969015;28;20624;-91
2022/05/26 10:52:42;;;;;;;3.10;0.90;;;;;;;;;;4969443;28;20517;-90
2022/05/26 10:55:10;;;;;;;4.78;1.00;;;;;;;;;;4983616;28;20081;-90
2022/05/26 10:57:43;;;;;;;4.55;2.15;;;;;;;;;;4978651;28;20037;-91
2022/05/26 11:00:09;;;;;;;3.78;1.15;;;;;;;;;;4966243;28;20040;-91
2022/05/26 11:02:48;;;;;;;10.35;1.50;;;;;;;;;;4967073;28;20508;-89
2022/05/26 11:05:18;;;;;;;3.38;0.95;;;;;;;;;;4965077;28;20162;-90
2022/05/26 11:07:48;;;;;;;2.38;1.30;;;;;;;;;;4971071;28;20251;-90
2022/05/26 11:10:22;;;;;;;4.30;1.10;;;;;;;;;;4971755;28;20033;-90
2022/05/26 11:12:54;;;;;;;2.13;1.10;;;;;;;;;;4983984;28;20517;-91
2022/05/26 11:18:18;;;;;;;6.47;1.33;;;;;;;;;;4978749;28;20366;-88
2022/05/26 11:20:53;;;;;;;5.70;1.33;;;;;;;;;;4966444;28;20046;-89
2022/05/26 11:23:20;;;;;;;6.40;1.30;;;;;;;;;;4969014;28;20164;-88
2022/05/26 11:25:49;;;;;;;10.18;2.20;;;;;;;;;;4979260;28;20281;-90
2022/05/26 11:28:15;;;;;;;2.60;1.23;;;;;;;;;;4981940;28;20057;-84
2022/05/26 11:36:23;;;;;;;5.50;1.13;;;;;;;;;;4977745;28;20537;-85
2022/05/26 11:38:51;;;;;;;6.07;1.58;;;;;;;;;;4967699;28;20034;-84
2022/05/26 11:41:32;;;;;;;7.25;1.00;;;;;;;;;;4966684;28;20497;-85
2022/05/26 11:44:02;;;;;;;8.68;1.45;;;;;;;;;;4966757;28;20522;-86
2022/05/26 11:46:44;;;;;;;2.53;1.00;;;;;;;;;;4963781;28;20031;-85
2022/05/26 11:49:11;;;;;;;6.22;1.10;;;;;;;;;;4967892;28;20034;-86
2022/05/26 11:51:41;;;;;;;13.10;1.35;;;;;;;;;;4969159;28;20029;-86
2022/05/26 11:54:11;;;;;;;4.82;1.48;;;;;;;;;;4962237;28;20238;-84
2022/05/26 11:56:42;;;;;;;4.45;1.45;;;;;;;;;;4969041;28;20509;-84
2022/05/26 11:59:26;;;;;;;13.02;1.42;;;;;;;;;;4963110;28;20513;-85
2022/05/26 12:02:01;;;;;;;3.60;1.25;;;;;;;;;;4968017;28;20026;-84
2022/05/26 12:04:30;;;;;;;3.30;1.50;;;;;;;;;;4967353;28;20280;-86
2022/05/26 12:07:01;;;;;;;8.18;1.60;;;;;;;;;;4967958;28;20022;-85
2022/05/26 12:09:34;;;;;;;7.93;1.30;;;;;;;;;;4987287;28;20034;-83
2022/05/26 12:12:37;;;;;;;7.43;1.20;;;;;;;;;;4964941;28;20709;-86
2022/05/26 12:15:14;;;;;;;8.02;1.05;;;;;;;;;;4965412;28;20042;-89
2022/05/26 12:17:51;;;;;;;7.78;1.67;;;;;;;;;;4981133;28;20073;-85
2022/05/26 12:20:17;;;;;;;3.80;1.05;;;;;;;;;;4979216;28;20050;-92
2022/05/26 12:22:52;;;;;;;5.55;0.98;;;;;;;;;;4966913;28;20086;-89
2022/05/26 12:25:23;;;;;;;2.67;0.80;;;;;;;;;;4964252;28;20046;-88
2022/05/26 12:27:51;;;;;;;2.50;1.17;;;;;;;;;;4989410;28;20422;-90
2022/05/26 12:30:36;;;;;;;7.00;1.73;;;;;;;;;;4968347;28;21003;-89
2022/05/26 12:33:12;;;;;;;9.57;1.25;;;;;;;;;;4982550;28;20502;-91
2022/05/26 12:35:47;;;;;;;4.90;1.20;;;;;;;;;;4969340;28;20566;-92
2022/05/26 12:38:32;;;;;;;5.47;1.05;;;;;;;;;;4967372;28;20034;-89
2022/05/26 12:40:58;;;;;;;6.93;1.30;;;;;;;;;;4971334;28;20046;-91
2022/05/26 12:43:31;;;;;;;5.97;1.27;;;;;;;;;;4971300;28;20549;-91
2022/05/26 12:46:01;;;;;;;4.97;1.80;;;;;;;;;;4981164;28;20045;-91
2022/05/26 12:48:36;;;;;;;7.10;1.70;;;;;;;;;;4965861;28;20738;-90
2022/05/26 12:51:04;;;;;;;4.30;0.80;;;;;;;;;;4979505;28;20026;-90
2022/05/26 12:53:33;;;;;;;1.33;0.82;;;;;;;;;;4970347;28;20042;-90
2022/05/26 12:56:00;;;;;;;8.77;1.40;;;;;;;;;;4970099;28;20027;-92
2022/05/26 12:58:29;;;;;;;6.65;1.13;;;;;;;;;;4968740;28;20030;-90
2022/05/26 13:00:55;;;;;;;5.72;1.20;;;;;;;;;;4967566;28;20035;-90
2022/05/26 13:03:40;;;;;;;6.85;1.48;;;;;;;;;;4983232;28;20109;-89
2022/05/26 13:06:12;;;;;;;9.77;1.75;;;;;;;;;;4971338;28;20033;-89
2022/05/26 13:08:47;;;;;;;6.70;1.70;;;;;;;;;;4974410;28;20058;-91
2022/05/26 13:11:15;;;;;;;4.30;1.27;;;;;;;;;;4965869;28;20031;-89
2022/05/26 13:13:43;;;;;;;3.42;1.27;;;;;;;;;;4964960;28;20137;-91
2022/05/26 13:16:21;;;;;;;4.30;1.20;;;;;;;;;;4948951;28;20045;-90
2022/05/26 13:18:48;;;;;;;10.65;1.42;;;;;;;;;;4945086;28;20412;-88
2022/05/26 13:21:18;;;;;;;9.05;1.85;;;;;;;;;;4950752;28;20081;-90
2022/05/26 13:23:44;;;;;;;14.30;2.67;;;;;;;;;;4967835;28;20025;-90
2022/05/26 13:26:12;;;;;;;5.25;1.20;;;;;;;;;;4953048;28;20050;-90
2022/05/26 13:28:40;;;;;;;3.20;1.13;;;;;;;;;;4948173;28;20563;-90
2022/05/26 13:33:55;;;;;;;17.27;2.22;;;;;;;;;;4969987;28;20130;-89
2022/05/26 13:36:32;;;;;;;7.40;1.58;;;;;;;;;;4953822;28;20546;-90
2022/05/26 13:39:12;;;;;;;9.75;1.80;;;;;;;;;;4949597;28;20053;-85
2022/05/26 13:41:39;;;;;;;9.77;1.60;;;;;;;;;;4952954;28;20030;-85
2022/05/26 13:44:06;;;;;;;7.25;1.92;;;;;;;;;;4943340;28;20039;-85
2022/05/26 13:46:37;;;;;;;7.72;2.20;;;;;;;;;;4950560;28;20042;-84
2022/05/26 13:49:22;;;;;;;4.13;1.50;;;;;;;;;;4948183;28;20545;-85
2022/05/26 13:51:51;;;;;;;4.50;1.40;;;;;;;;;;4943338;28;20081;-85
2022/05/26 13:54:23;;;;;;;6.25;1.40;;;;;;;;;;4968222;28;20058;-85
2022/05/26 13:56:50;;;;;;;7.13;1.77;;;;;;;;;;4941656;28;20049;-85
2022/05/26 13:59:16;;;;;;;7.05;1.40;;;;;;;;;;4954678;28;20085;-85
2022/05/26 14:01:50;;;;;;;10.82;1.30;;;;;;;;;;4966244;28;20034;-86
2022/05/26 14:04:37;;;;;;;7.03;1.35;;;;;;;;;;4949085;28;20031;-86
2022/05/26 14:07:23;;;;;;;7.28;1.70;;;;;;;;;;4950580;28;20046;-86
2022/05/26 14:09:59;;;;;;;2.92;1.13;;;;;;;;;;4948089;28;20038;-85
2022/05/26 14:12:28;;;;;;;7.15;1.85;;;;;;;;;;4950709;28;20195;-86
2022/05/26 14:15:01;;;;;;;11.40;2.55;;;;;;;;;;4962022;28;20096;-85
2022/05/26 14:17:42;;;;;;;6.28;1.40;;;;;;;;;;4967886;28;20348;-85
2022/05/26 14:20:11;;;;;;;7.28;1.60;;;;;;;;;;4967787;28;20478;-85
2022/05/26 14:22:45;;;;;;;6.18;1.35;;;;;;;;;;4968815;28;20034;-85
2022/05/26 14:25:16;;;;;;;4.22;0.95;;;;;;;;;;4968703;28;20425;-85
2022/05/26 14:27:51;;;;;;;7.25;1.30;;;;;;;;;;4981510;28;20054;-85
2022/05/26 14:30:28;;;;;;;7.40;2.13;;;;;;;;;;4981266;28;20042;-85
2022/05/26 14:32:54;;;;;;;7.15;1.17;;;;;;;;;;4969121;28;20145;-85
2022/05/26 14:35:20;;;;;;;4.47;1.65;;;;;;;;;;4979890;28;20042;-85
2022/05/26 14:37:47;;;;;;;8.00;2.70;;;;;;;;;;4985985;28;20034;-85
2022/05/26 14:40:15;;;;;;;6.22;1.50;;;;;;;;;;4966989;28;20320;-85
2022/05/26 14:42:42;;;;;;;9.70;1.55;;;;;;;;;;4983394;28;20030;-85
2022/05/26 14:45:11;;;;;;;4.40;1.60;;;;;;;;;;4978199;28;20507;-85
2022/05/26 14:47:38;;;;;;;9.02;1.75;;;;;;;;;;4962996;28;20070;-84
2022/05/26 14:50:05;;;;;;;9.20;1.83;;;;;;;;;;4982338;28;20044;-86
2022/05/26 14:52:31;;;;;;;7.90;1.50;;;;;;;;;;4962582;28;20080;-85
2022/05/26 14:57:43;;;;;;;14.50;2.00;;;;;;;;;;4984751;28;20073;-85
2022/05/26 15:00:11;;;;;;;11.32;1.60;;;;;;;;;;4979282;28;20478;-85
2022/05/26 15:02:38;;;;;;;15.20;2.28;;;;;;;;;;4970975;28;20121;-85
2022/05/26 15:05:05;;;;;;;7.25;1.85;;;;;;;;;;4966583;28;20410;-86
2022/05/26 15:07:31;;;;;;;6.70;1.48;;;;;;;;;;4968674;28;20038;-85
2022/05/26 15:09:57;;;;;;;12.70;2.15;;;;;;;;;;4983642;28;20030;-85
2022/05/26 15:12:23;;;;;;;7.07;2.17;;;;;;;;;;4970327;28;20038;-85
2022/05/26 15:14:49;;;;;;;9.43;1.52;;;;;;;;;;4968749;28;20116;-85
2022/05/26 15:17:18;;;;;;;5.15;1.35;;;;;;;;;;4971187;28;20051;-85
2022/05/26 15:20:10;;;;;;;5.85;1.77;;;;;;;;;;4971469;28;20137;-84
2022/05/26 15:22:37;;;;;;;8.02;2.42;;;;;;;;;;4963619;28;20502;-85
2022/05/26 15:25:04;;;;;;;7.63;2.33;;;;;;;;;;4985049;28;20515;-85
2022/05/26 15:27:31;;;;;;;5.28;1.63;;;;;;;;;;4973555;28;20421;-85
2022/05/26 15:29:57;;;;;;;12.90;1.83;;;;;;;;;;4965558;28;20596;-86
2022/05/26 15:32:28;;;;;;;6.22;1.75;;;;;;;;;;4982314;28;20049;-84
2022/05/26 15:34:54;;;;;;;10.30;2.03;;;;;;;;;;4966948;28;20042;-84
2022/05/26 15:37:20;;;;;;;14.73;2.90;;;;;;;;;;4966121;28;20041;-85
2022/05/26 15:39:46;;;;;;;4.55;2.28;;;;;;;;;;4969699;28;20034;-85